sensor_id;sensor_type;location;lat;lon;timestamp;pressure;altitude;pressure_sealevel;temperature;humidity
64294;BME280;50636;45.596;5.258;2023-02-16T00:00:04;99910.84;;;7.99;51.85
64294;BME280;50636;45.596;5.258;2023-02-16T00:02:37;99911.50;;;8.02;51.27
64294;BME280;50636;45.596;5.258;2023-02-16T00:05:38;99917.72;;;7.83;51.64
64294;BME280;50636;45.596;5.258;2023-02-16T00:08:09;99911.34;;;7.77;52.06
64294;BME280;50636;45.596;5.258;2023-02-16T00:10:37;99922.00;;;7.66;52.92
64294;BME280;50636;45.596;5.258;2023-02-16T00:13:32;99915.44;;;7.62;52.82
64294;BME280;50636;45.596;5.258;2023-02-16T00:16:26;99914.78;;;7.59;51.91
64294;BME280;50636;45.596;5.258;2023-02-16T00:18:53;99918.81;;;7.36;52.12
64294;BME280;50636;45.596;5.258;2023-02-16T00:21:20;99910.53;;;7.05;53.53
64294;BME280;50636;45.596;5.258;2023-02-16T00:23:48;99917.91;;;6.82;53.42
64294;BME280;50636;45.596;5.258;2023-02-16T00:26:33;99930.31;;;6.70;54.62
64294;BME280;50636;45.596;5.258;2023-02-16T00:29:01;99923.34;;;6.70;55.17
64294;BME280;50636;45.596;5.258;2023-02-16T00:31:30;99920.97;;;6.77;55.83
64294;BME280;50636;45.596;5.258;2023-02-16T00:34:30;99920.88;;;6.69;57.50
64294;BME280;50636;45.596;5.258;2023-02-16T00:37:22;99919.75;;;6.99;57.40
64294;BME280;50636;45.596;5.258;2023-02-16T00:40:08;99920.44;;;7.19;58.10
64294;BME280;50636;45.596;5.258;2023-02-16T00:42:36;99914.25;;;7.38;57.07
64294;BME280;50636;45.596;5.258;2023-02-16T00:45:05;99916.28;;;7.44;56.91
64294;BME280;50636;45.596;5.258;2023-02-16T00:47:43;99909.75;;;7.66;56.16
64294;BME280;50636;45.596;5.258;2023-02-16T00:52:49;99905.75;;;7.36;55.94
64294;BME280;50636;45.596;5.258;2023-02-16T00:55:22;99906.94;;;7.06;55.91
64294;BME280;50636;45.596;5.258;2023-02-16T00:58:25;99903.47;;;6.59;57.29
64294;BME280;50636;45.596;5.258;2023-02-16T01:01:23;99910.47;;;6.22;58.49
64294;BME280;50636;45.596;5.258;2023-02-16T01:04:05;99902.03;;;6.10;59.75
64294;BME280;50636;45.596;5.258;2023-02-16T01:06:50;99906.75;;;6.34;59.55
64294;BME280;50636;45.596;5.258;2023-02-16T01:09:44;99901.53;;;6.34;59.75
64294;BME280;50636;45.596;5.258;2023-02-16T01:12:42;99892.97;;;6.42;60.14
64294;BME280;50636;45.596;5.258;2023-02-16T01:15:22;99886.78;;;6.52;59.17
64294;BME280;50636;45.596;5.258;2023-02-16T01:17:49;99890.28;;;6.61;60.02
64294;BME280;50636;45.596;5.258;2023-02-16T01:20:26;99893.97;;;6.68;58.92
64294;BME280;50636;45.596;5.258;2023-02-16T01:23:09;99889.47;;;6.60;59.62
64294;BME280;50636;45.596;5.258;2023-02-16T01:25:40;99894.97;;;6.57;59.55
64294;BME280;50636;45.596;5.258;2023-02-16T01:28:40;99893.72;;;6.62;59.63
64294;BME280;50636;45.596;5.258;2023-02-16T01:31:10;99891.19;;;6.70;59.77
64294;BME280;50636;45.596;5.258;2023-02-16T01:33:46;99903.94;;;6.45;59.02
64294;BME280;50636;45.596;5.258;2023-02-16T01:36:42;99903.22;;;6.15;59.66
64294;BME280;50636;45.596;5.258;2023-02-16T01:39:36;99896.81;;;6.00;60.96
64294;BME280;50636;45.596;5.258;2023-02-16T01:45:17;99902.59;;;5.84;61.14
64294;BME280;50636;45.596;5.258;2023-02-16T01:48:36;99905.06;;;5.76;61.17
64294;BME280;50636;45.596;5.258;2023-02-16T01:55:04;99903.97;;;5.78;59.71
64294;BME280;50636;45.596;5.258;2023-02-16T01:57:58;99900.41;;;5.79;59.89
64294;BME280;50636;45.596;5.258;2023-02-16T02:03:38;99884.91;;;5.88;60.11
64294;BME280;50636;45.596;5.258;2023-02-16T02:06:47;99885.47;;;5.82;58.93
64294;BME280;50636;45.596;5.258;2023-02-16T02:15:59;99878.59;;;5.61;60.83
64294;BME280;50636;45.596;5.258;2023-02-16T02:18:37;99883.44;;;5.56;61.35
64294;BME280;50636;45.596;5.258;2023-02-16T02:46:45;99870.53;;;5.74;61.20
64294;BME280;50636;45.596;5.258;2023-02-16T02:49:23;99869.72;;;5.44;61.55
64294;BME280;50636;45.596;5.258;2023-02-16T02:52:07;99871.78;;;5.31;62.12
64294;BME280;50636;45.596;5.258;2023-02-16T02:54:41;99881.09;;;5.33;62.12
64294;BME280;50636;45.596;5.258;2023-02-16T02:57:53;99884.53;;;5.44;61.51
64294;BME280;50636;45.596;5.258;2023-02-16T03:01:03;99883.69;;;5.43;61.51
64294;BME280;50636;45.596;5.258;2023-02-16T03:03:46;99881.38;;;5.59;60.97
64294;BME280;50636;45.596;5.258;2023-02-16T03:06:44;99883.25;;;5.67;60.63
64294;BME280;50636;45.596;5.258;2023-02-16T03:09:39;99886.03;;;5.66;60.64
64294;BME280;50636;45.596;5.258;2023-02-16T03:12:17;99881.09;;;5.53;60.70
64294;BME280;50636;45.596;5.258;2023-02-16T03:18:06;99871.09;;;5.38;61.27
64294;BME280;50636;45.596;5.258;2023-02-16T03:20:52;99878.78;;;5.50;61.19
64294;BME280;50636;45.596;5.258;2023-02-16T03:23:55;99884.09;;;5.58;60.81
64294;BME280;50636;45.596;5.258;2023-02-16T03:27:06;99888.19;;;5.70;61.18
64294;BME280;50636;45.596;5.258;2023-02-16T03:30:04;99886.28;;;5.72;60.52
64294;BME280;50636;45.596;5.258;2023-02-16T03:32:38;99879.56;;;5.70;60.79
64294;BME280;50636;45.596;5.258;2023-02-16T03:35:23;99877.78;;;5.60;60.20
64294;BME280;50636;45.596;5.258;2023-02-16T03:38:00;99881.63;;;5.56;60.52
64294;BME280;50636;45.596;5.258;2023-02-16T03:40:40;99877.53;;;5.54;60.40
64294;BME280;50636;45.596;5.258;2023-02-16T03:43:16;99874.50;;;5.49;61.10
64294;BME280;50636;45.596;5.258;2023-02-16T03:46:03;99870.28;;;5.38;61.96
64294;BME280;50636;45.596;5.258;2023-02-16T03:48:44;99881.66;;;5.27;61.50
64294;BME280;50636;45.596;5.258;2023-02-16T03:51:23;99895.88;;;5.04;61.85
64294;BME280;50636;45.596;5.258;2023-02-16T03:54:06;99896.97;;;5.01;62.09
64294;BME280;50636;45.596;5.258;2023-02-16T03:56:51;99893.13;;;4.95;63.02
64294;BME280;50636;45.596;5.258;2023-02-16T03:59:29;99893.66;;;4.89;62.90
64294;BME280;50636;45.596;5.258;2023-02-16T04:02:16;99895.00;;;4.84;63.38
64294;BME280;50636;45.596;5.258;2023-02-16T04:05:06;99893.34;;;4.73;62.84
64294;BME280;50636;45.596;5.258;2023-02-16T04:07:50;99900.19;;;4.74;63.61
64294;BME280;50636;45.596;5.258;2023-02-16T04:10:38;99898.84;;;4.79;63.48
64294;BME280;50636;45.596;5.258;2023-02-16T04:13:18;99901.47;;;4.89;63.77
64294;BME280;50636;45.596;5.258;2023-02-16T04:15:44;99899.38;;;4.73;64.09
64294;BME280;50636;45.596;5.258;2023-02-16T04:18:19;99907.81;;;4.66;64.81
64294;BME280;50636;45.596;5.258;2023-02-16T04:21:05;99907.44;;;4.80;65.42
64294;BME280;50636;45.596;5.258;2023-02-16T04:23:35;99904.44;;;4.85;64.13
64294;BME280;50636;45.596;5.258;2023-02-16T04:26:16;99911.97;;;4.78;63.23
64294;BME280;50636;45.596;5.258;2023-02-16T04:28:53;99916.06;;;4.80;63.44
64294;BME280;50636;45.596;5.258;2023-02-16T04:31:36;99925.28;;;4.94;62.76
64294;BME280;50636;45.596;5.258;2023-02-16T04:34:12;99916.38;;;4.97;62.49
64294;BME280;50636;45.596;5.258;2023-02-16T04:36:52;99918.56;;;4.92;63.05
64294;BME280;50636;45.596;5.258;2023-02-16T04:39:18;99925.81;;;4.88;62.83
64294;BME280;50636;45.596;5.258;2023-02-16T04:41:51;99922.19;;;4.70;62.98
64294;BME280;50636;45.596;5.258;2023-02-16T04:44:28;99918.22;;;4.66;64.12
64294;BME280;50636;45.596;5.258;2023-02-16T04:47:35;99918.97;;;4.47;63.86
64294;BME280;50636;45.596;5.258;2023-02-16T04:50:21;99917.31;;;4.15;65.32
64294;BME280;50636;45.596;5.258;2023-02-16T04:52:59;99918.69;;;3.98;65.87
64294;BME280;50636;45.596;5.258;2023-02-16T04:55:46;99913.97;;;4.03;66.88
64294;BME280;50636;45.596;5.258;2023-02-16T04:58:27;99913.03;;;4.35;65.56
64294;BME280;50636;45.596;5.258;2023-02-16T05:01:04;99915.00;;;4.52;65.21
64294;BME280;50636;45.596;5.258;2023-02-16T05:03:46;99906.84;;;4.57;64.42
64294;BME280;50636;45.596;5.258;2023-02-16T05:06:20;99899.97;;;4.56;65.43
64294;BME280;50636;45.596;5.258;2023-02-16T05:08:56;99899.56;;;4.51;65.86
64294;BME280;50636;45.596;5.258;2023-02-16T05:11:21;99901.59;;;4.47;66.05
64294;BME280;50636;45.596;5.258;2023-02-16T05:14:20;99898.66;;;4.31;67.03
64294;BME280;50636;45.596;5.258;2023-02-16T05:17:08;99896.94;;;4.20;66.83
64294;BME280;50636;45.596;5.258;2023-02-16T05:19:35;99905.19;;;4.04;67.24
64294;BME280;50636;45.596;5.258;2023-02-16T05:22:02;99916.44;;;4.05;67.40
64294;BME280;50636;45.596;5.258;2023-02-16T05:24:42;99913.78;;;3.95;67.39
64294;BME280;50636;45.596;5.258;2023-02-16T05:27:26;99904.44;;;3.92;67.53
64294;BME280;50636;45.596;5.258;2023-02-16T05:30:02;99908.25;;;3.88;67.75
64294;BME280;50636;45.596;5.258;2023-02-16T05:32:41;99910.72;;;3.90;67.93
64294;BME280;50636;45.596;5.258;2023-02-16T05:35:11;99917.38;;;4.04;67.88
64294;BME280;50636;45.596;5.258;2023-02-16T05:37:41;99908.56;;;4.16;67.46
64294;BME280;50636;45.596;5.258;2023-02-16T05:40:14;99912.88;;;4.27;67.82
64294;BME280;50636;45.596;5.258;2023-02-16T05:42:45;99914.97;;;4.43;67.15
64294;BME280;50636;45.596;5.258;2023-02-16T05:45:14;99901.25;;;4.62;67.00
64294;BME280;50636;45.596;5.258;2023-02-16T05:47:57;99908.75;;;4.65;65.96
64294;BME280;50636;45.596;5.258;2023-02-16T05:50:29;99912.38;;;4.43;65.66
64294;BME280;50636;45.596;5.258;2023-02-16T05:52:56;99916.28;;;4.06;65.84
64294;BME280;50636;45.596;5.258;2023-02-16T05:55:43;99915.53;;;3.73;66.59
64294;BME280;50636;45.596;5.258;2023-02-16T05:58:11;99922.25;;;3.55;67.33
64294;BME280;50636;45.596;5.258;2023-02-16T06:00:37;99925.06;;;3.52;67.40
64294;BME280;50636;45.596;5.258;2023-02-16T06:03:04;99927.09;;;3.48;67.20
64294;BME280;50636;45.596;5.258;2023-02-16T06:05:31;99923.13;;;3.65;67.63
64294;BME280;50636;45.596;5.258;2023-02-16T06:08:14;99926.56;;;3.87;67.05
64294;BME280;50636;45.596;5.258;2023-02-16T06:10:40;99929.09;;;3.98;66.90
64294;BME280;50636;45.596;5.258;2023-02-16T06:13:08;99931.63;;;4.09;66.75
64294;BME280;50636;45.596;5.258;2023-02-16T06:15:36;99933.03;;;4.13;65.42
64294;BME280;50636;45.596;5.258;2023-02-16T06:18:04;99933.66;;;4.27;65.85
64294;BME280;50636;45.596;5.258;2023-02-16T06:20:31;99933.94;;;4.33;64.95
64294;BME280;50636;45.596;5.258;2023-02-16T06:23:00;99933.06;;;4.02;65.28
64294;BME280;50636;45.596;5.258;2023-02-16T06:25:27;99929.72;;;3.90;66.15
64294;BME280;50636;45.596;5.258;2023-02-16T06:27:54;99931.06;;;3.85;65.91
64294;BME280;50636;45.596;5.258;2023-02-16T06:30:23;99937.69;;;3.77;66.69
64294;BME280;50636;45.596;5.258;2023-02-16T06:32:50;99927.59;;;3.74;67.46
64294;BME280;50636;45.596;5.258;2023-02-16T06:35:18;99922.44;;;4.05;69.05
64294;BME280;50636;45.596;5.258;2023-02-16T06:37:44;99926.78;;;4.26;68.89
64294;BME280;50636;45.596;5.258;2023-02-16T06:40:12;99923.28;;;4.67;66.86
64294;BME280;50636;45.596;5.258;2023-02-16T06:42:53;99930.72;;;4.82;66.02
64294;BME280;50636;45.596;5.258;2023-02-16T06:45:20;99916.22;;;4.79;65.23
64294;BME280;50636;45.596;5.258;2023-02-16T06:48:03;99922.28;;;4.58;66.50
64294;BME280;50636;45.596;5.258;2023-02-16T06:50:49;99928.97;;;4.51;65.97
64294;BME280;50636;45.596;5.258;2023-02-16T06:53:16;99931.41;;;4.22;66.72
64294;BME280;50636;45.596;5.258;2023-02-16T06:55:43;99940.31;;;3.98;67.06
64294;BME280;50636;45.596;5.258;2023-02-16T06:58:11;99945.88;;;3.94;68.36
64294;BME280;50636;45.596;5.258;2023-02-16T07:00:38;99940.81;;;3.92;68.70
64294;BME280;50636;45.596;5.258;2023-02-16T07:03:05;99949.69;;;3.90;68.14
64294;BME280;50636;45.596;5.258;2023-02-16T07:05:32;99949.38;;;3.83;68.19
64294;BME280;50636;45.596;5.258;2023-02-16T07:08:00;99953.63;;;4.05;68.03
64294;BME280;50636;45.596;5.258;2023-02-16T07:10:26;99951.44;;;4.31;67.35
64294;BME280;50636;45.596;5.258;2023-02-16T07:12:53;99945.25;;;4.84;66.84
64294;BME280;50636;45.596;5.258;2023-02-16T07:15:30;99950.44;;;6.12;65.35
64294;BME280;50636;45.596;5.258;2023-02-16T07:17:58;99953.38;;;7.48;62.28
64294;BME280;50636;45.596;5.258;2023-02-16T07:20:26;99939.31;;;8.63;58.81
64294;BME280;50636;45.596;5.258;2023-02-16T07:22:53;99941.00;;;9.23;56.88
64294;BME280;50636;45.596;5.258;2023-02-16T07:25:20;99933.38;;;9.95;54.58
64294;BME280;50636;45.596;5.258;2023-02-16T07:27:47;99938.66;;;10.59;52.25
64294;BME280;50636;45.596;5.258;2023-02-16T07:30:17;99939.06;;;10.88;51.02
64294;BME280;50636;45.596;5.258;2023-02-16T07:32:47;99945.72;;;11.07;49.93
64294;BME280;50636;45.596;5.258;2023-02-16T07:35:14;99941.88;;;11.17;47.84
64294;BME280;50636;45.596;5.258;2023-02-16T07:37:41;99946.91;;;11.27;47.32
64294;BME280;50636;45.596;5.258;2023-02-16T07:40:08;99949.91;;;11.93;47.08
64294;BME280;50636;45.596;5.258;2023-02-16T07:42:35;99951.56;;;12.84;44.76
64294;BME280;50636;45.596;5.258;2023-02-16T07:45:03;99945.63;;;13.11;43.17
64294;BME280;50636;45.596;5.258;2023-02-16T07:47:29;99950.78;;;13.56;42.30
64294;BME280;50636;45.596;5.258;2023-02-16T07:49:57;99962.03;;;14.14;40.72
64294;BME280;50636;45.596;5.258;2023-02-16T07:52:24;99949.97;;;14.33;39.30
64294;BME280;50636;45.596;5.258;2023-02-16T07:54:57;99951.78;;;13.33;40.52
64294;BME280;50636;45.596;5.258;2023-02-16T07:57:26;99954.56;;;12.21;42.06
64294;BME280;50636;45.596;5.258;2023-02-16T07:59:55;99960.38;;;11.24;43.38
64294;BME280;50636;45.596;5.258;2023-02-16T08:02:23;99959.72;;;11.22;44.03
64294;BME280;50636;45.596;5.258;2023-02-16T08:04:52;99968.94;;;11.49;44.08
64294;BME280;50636;45.596;5.258;2023-02-16T08:07:19;99969.81;;;11.88;43.89
64294;BME280;50636;45.596;5.258;2023-02-16T08:09:48;99973.28;;;12.41;43.55
64294;BME280;50636;45.596;5.258;2023-02-16T08:12:20;99962.25;;;13.12;42.65
64294;BME280;50636;45.596;5.258;2023-02-16T08:14:49;99960.63;;;13.90;41.53
64294;BME280;50636;45.596;5.258;2023-02-16T08:17:16;99955.44;;;14.60;39.84
64294;BME280;50636;45.596;5.258;2023-02-16T08:19:43;99958.09;;;15.02;38.18
64294;BME280;50636;45.596;5.258;2023-02-16T08:22:10;99963.72;;;15.53;37.80
64294;BME280;50636;45.596;5.258;2023-02-16T08:24:38;99962.72;;;16.28;36.60
64294;BME280;50636;45.596;5.258;2023-02-16T08:27:05;99958.75;;;16.77;34.99
64294;BME280;50636;45.596;5.258;2023-02-16T08:29:33;99957.19;;;17.46;34.49
64294;BME280;50636;45.596;5.258;2023-02-16T08:32:00;99954.63;;;18.22;33.26
64294;BME280;50636;45.596;5.258;2023-02-16T08:34:36;99957.38;;;18.89;32.45
64294;BME280;50636;45.596;5.258;2023-02-16T08:37:04;99956.94;;;19.52;31.48
64294;BME280;50636;45.596;5.258;2023-02-16T08:39:32;99963.19;;;20.24;30.43
64294;BME280;50636;45.596;5.258;2023-02-16T08:42:00;99959.97;;;20.98;29.30
64294;BME280;50636;45.596;5.258;2023-02-16T08:44:28;99959.44;;;21.41;29.03
64294;BME280;50636;45.596;5.258;2023-02-16T08:46:58;99966.53;;;21.47;28.22
64294;BME280;50636;45.596;5.258;2023-02-16T08:49:26;99969.75;;;21.49;28.15
64294;BME280;50636;45.596;5.258;2023-02-16T08:51:56;99975.28;;;21.60;28.17
64294;BME280;50636;45.596;5.258;2023-02-16T08:54:25;99966.13;;;22.06;28.11
64294;BME280;50636;45.596;5.258;2023-02-16T08:56:54;99966.53;;;22.32;27.00
64294;BME280;50636;45.596;5.258;2023-02-16T08:59:22;99965.47;;;22.33;26.42
64294;BME280;50636;45.596;5.258;2023-02-16T09:01:50;99968.00;;;22.40;25.59
64294;BME280;50636;45.596;5.258;2023-02-16T09:04:18;99965.38;;;22.45;25.51
64294;BME280;50636;45.596;5.258;2023-02-16T09:06:48;99956.81;;;22.26;24.65
64294;BME280;50636;45.596;5.258;2023-02-16T09:09:16;99966.84;;;21.51;25.77
64294;BME280;50636;45.596;5.258;2023-02-16T09:11:44;99970.84;;;21.08;26.72
64294;BME280;50636;45.596;5.258;2023-02-16T09:14:11;99969.13;;;21.02;27.06
64294;BME280;50636;45.596;5.258;2023-02-16T09:16:38;99978.16;;;19.29;29.01
64294;BME280;50636;45.596;5.258;2023-02-16T09:19:17;99982.06;;;17.90;30.62
64294;BME280;50636;45.596;5.258;2023-02-16T09:21:46;99985.25;;;17.35;31.95
64294;BME280;50636;45.596;5.258;2023-02-16T09:24:14;99985.66;;;16.87;32.58
64294;BME280;50636;45.596;5.258;2023-02-16T09:26:41;100001.00;;;16.58;33.58
64294;BME280;50636;45.596;5.258;2023-02-16T09:29:11;100001.25;;;16.24;33.99
64294;BME280;50636;45.596;5.258;2023-02-16T09:31:39;99996.00;;;17.02;34.12
64294;BME280;50636;45.596;5.258;2023-02-16T09:34:20;99992.03;;;19.01;32.87
64294;BME280;50636;45.596;5.258;2023-02-16T09:36:56;99990.53;;;20.78;30.20
64294;BME280;50636;45.596;5.258;2023-02-16T09:39:24;99988.50;;;22.34;27.58
64294;BME280;50636;45.596;5.258;2023-02-16T09:46:57;99983.25;;;24.62;24.75
64294;BME280;50636;45.596;5.258;2023-02-16T09:49:41;99980.94;;;24.96;24.72
64294;BME280;50636;45.596;5.258;2023-02-16T09:53:31;99979.19;;;25.43;24.53
64294;BME280;50636;45.596;5.258;2023-02-16T09:59:10;99982.44;;;26.27;23.37
64294;BME280;50636;45.596;5.258;2023-02-16T10:05:44;99978.50;;;27.74;21.45
64294;BME280;50636;45.596;5.258;2023-02-16T10:08:06;99983.13;;;28.02;21.03
64294;BME280;50636;45.596;5.258;2023-02-16T10:11:13;99984.06;;;28.17;21.00
64294;BME280;50636;45.596;5.258;2023-02-16T10:14:15;99982.28;;;28.31;20.98
64294;BME280;50636;45.596;5.258;2023-02-16T10:17:22;99985.72;;;28.66;20.63
64294;BME280;50636;45.596;5.258;2023-02-16T10:20:15;99979.81;;;27.42;21.63
64294;BME280;50636;45.596;5.258;2023-02-16T10:25:23;99982.44;;;26.11;22.34
64294;BME280;50636;45.596;5.258;2023-02-16T10:28:15;99982.41;;;26.42;21.91
64294;BME280;50636;45.596;5.258;2023-02-16T10:40:19;99974.88;;;26.24;22.77
64294;BME280;50636;45.596;5.258;2023-02-16T10:49:25;99961.56;;;26.79;21.60
64294;BME280;50636;45.596;5.258;2023-02-16T10:52:11;99967.72;;;27.39;21.37
64294;BME280;50636;45.596;5.258;2023-02-16T10:54:38;99974.50;;;27.26;21.26
64294;BME280;50636;45.596;5.258;2023-02-16T10:57:27;99976.19;;;27.12;21.20
64294;BME280;50636;45.596;5.258;2023-02-16T11:00:17;99971.28;;;26.75;21.93
64294;BME280;50636;45.596;5.258;2023-02-16T11:03:09;99980.03;;;25.64;22.37
64294;BME280;50636;45.596;5.258;2023-02-16T11:05:39;99978.69;;;25.61;23.37
64294;BME280;50636;45.596;5.258;2023-02-16T11:08:07;99973.84;;;26.30;22.96
64294;BME280;50636;45.596;5.258;2023-02-16T11:10:42;99970.84;;;26.37;21.69
64294;BME280;50636;45.596;5.258;2023-02-16T11:13:31;99962.94;;;26.71;22.17
64294;BME280;50636;45.596;5.258;2023-02-16T11:16:22;99967.19;;;27.72;21.58
64294;BME280;50636;45.596;5.258;2023-02-16T11:19:23;99968.13;;;27.86;21.03
64294;BME280;50636;45.596;5.258;2023-02-16T11:21:55;99966.06;;;27.43;20.70
64294;BME280;50636;45.596;5.258;2023-02-16T11:24:28;99965.66;;;27.21;21.12
64294;BME280;50636;45.596;5.258;2023-02-16T11:27:14;99964.59;;;26.57;21.41
64294;BME280;50636;45.596;5.258;2023-02-16T11:29:44;99967.28;;;26.57;21.46
64294;BME280;50636;45.596;5.258;2023-02-16T11:32:13;99954.88;;;26.66;21.11
64294;BME280;50636;45.596;5.258;2023-02-16T11:34:49;99946.28;;;27.14;20.74
64294;BME280;50636;45.596;5.258;2023-02-16T11:37:29;99947.97;;;27.78;20.85
64294;BME280;50636;45.596;5.258;2023-02-16T11:40:00;99939.00;;;28.17;20.54
64294;BME280;50636;45.596;5.258;2023-02-16T11:42:34;99934.41;;;27.88;20.04
64294;BME280;50636;45.596;5.258;2023-02-16T11:45:33;99935.25;;;27.84;19.93
64294;BME280;50636;45.596;5.258;2023-02-16T11:48:13;99938.03;;;27.74;20.13
64294;BME280;50636;45.596;5.258;2023-02-16T11:53:28;99934.13;;;28.19;19.98
64294;BME280;50636;45.596;5.258;2023-02-16T11:58:39;99926.09;;;27.80;20.52
64294;BME280;50636;45.596;5.258;2023-02-16T12:01:19;99915.38;;;28.04;20.28
64294;BME280;50636;45.596;5.258;2023-02-16T12:19:23;99885.84;;;28.37;19.90
64294;BME280;50636;45.596;5.258;2023-02-16T12:31:20;99877.16;;;27.62;20.85
64294;BME280;50636;45.596;5.258;2023-02-16T12:45:18;99863.97;;;27.90;20.87
64294;BME280;50636;45.596;5.258;2023-02-16T12:54:35;99862.75;;;27.77;21.26
64294;BME280;50636;45.596;5.258;2023-02-16T12:57:23;99855.47;;;28.02;20.93
64294;BME280;50636;45.596;5.258;2023-02-16T13:02:52;99842.31;;;27.71;20.98
64294;BME280;50636;45.596;5.258;2023-02-16T13:05:41;99848.78;;;27.70;20.99
64294;BME280;50636;45.596;5.258;2023-02-16T13:14:29;99837.44;;;27.44;21.08
64294;BME280;50636;45.596;5.258;2023-02-16T13:17:31;99832.03;;;27.44;21.00
64294;BME280;50636;45.596;5.258;2023-02-16T13:19:59;99829.16;;;27.35;20.93
64294;BME280;50636;45.596;5.258;2023-02-16T13:39:59;99817.88;;;26.49;22.13
64294;BME280;50636;45.596;5.258;2023-02-16T13:45:40;99813.06;;;25.76;22.76
64294;BME280;50636;45.596;5.258;2023-02-16T13:48:23;99808.25;;;25.57;23.87
64294;BME280;50636;45.596;5.258;2023-02-16T13:50:57;99805.56;;;25.62;23.17
64294;BME280;50636;45.596;5.258;2023-02-16T13:53:39;99797.25;;;25.38;22.95
64294;BME280;50636;45.596;5.258;2023-02-16T13:56:34;99799.97;;;25.28;23.96
64294;BME280;50636;45.596;5.258;2023-02-16T14:01:47;99804.75;;;24.75;22.76
64294;BME280;50636;45.596;5.258;2023-02-16T14:09:47;99802.78;;;23.39;23.60
64294;BME280;50636;45.596;5.258;2023-02-16T14:12:29;99794.88;;;23.22;23.45
64294;BME280;50636;45.596;5.258;2023-02-16T14:15:14;99791.53;;;22.77;24.73
64294;BME280;50636;45.596;5.258;2023-02-16T14:17:57;99790.72;;;22.49;24.55
64294;BME280;50636;45.596;5.258;2023-02-16T14:20:31;99787.50;;;22.03;24.69
64294;BME280;50636;45.596;5.258;2023-02-16T14:22:58;99791.88;;;21.70;25.02
64294;BME280;50636;45.596;5.258;2023-02-16T14:25:44;99788.50;;;21.24;25.43
64294;BME280;50636;45.596;5.258;2023-02-16T14:31:14;99796.69;;;20.43;27.14
64294;BME280;50636;45.596;5.258;2023-02-16T14:34:14;99798.03;;;20.29;28.46
64294;BME280;50636;45.596;5.258;2023-02-16T14:39:46;99793.34;;;20.36;26.99
64294;BME280;50636;45.596;5.258;2023-02-16T14:42:29;99789.63;;;20.49;26.80
64294;BME280;50636;45.596;5.258;2023-02-16T14:45:29;99791.19;;;20.33;26.00
64294;BME280;50636;45.596;5.258;2023-02-16T14:58:00;99794.97;;;19.49;26.43
64294;BME280;50636;45.596;5.258;2023-02-16T15:00:52;99783.75;;;19.59;26.49
64294;BME280;50636;45.596;5.258;2023-02-16T15:03:25;99792.91;;;19.87;25.37
64294;BME280;50636;45.596;5.258;2023-02-16T15:06:04;99787.34;;;19.88;25.34
64294;BME280;50636;45.596;5.258;2023-02-16T15:08:48;99785.28;;;19.79;25.57
64294;BME280;50636;45.596;5.258;2023-02-16T15:11:49;99784.34;;;19.73;25.83
64294;BME280;50636;45.596;5.258;2023-02-16T15:15:16;99784.31;;;19.61;25.45
64294;BME280;50636;45.596;5.258;2023-02-16T15:17:47;99790.00;;;19.41;25.36
64294;BME280;50636;45.596;5.258;2023-02-16T15:20:41;99788.72;;;19.20;25.58
64294;BME280;50636;45.596;5.258;2023-02-16T15:28:24;99782.66;;;19.01;25.84
64294;BME280;50636;45.596;5.258;2023-02-16T15:30:59;99783.34;;;18.96;26.21
64294;BME280;50636;45.596;5.258;2023-02-16T15:33:39;99782.91;;;19.00;26.44
64294;BME280;50636;45.596;5.258;2023-02-16T15:36:13;99778.38;;;19.00;26.14
64294;BME280;50636;45.596;5.258;2023-02-16T15:38:54;99777.00;;;18.98;25.92
64294;BME280;50636;45.596;5.258;2023-02-16T15:41:28;99770.16;;;18.90;25.62
64294;BME280;50636;45.596;5.258;2023-02-16T15:43:56;99765.16;;;18.82;25.70
64294;BME280;50636;45.596;5.258;2023-02-16T15:46:32;99772.16;;;18.76;25.59
64294;BME280;50636;45.596;5.258;2023-02-16T15:49:30;99766.91;;;18.58;25.90
64294;BME280;50636;45.596;5.258;2023-02-16T15:52:00;99771.13;;;18.65;27.19
64294;BME280;50636;45.596;5.258;2023-02-16T15:54:29;99762.22;;;18.71;26.56
64294;BME280;50636;45.596;5.258;2023-02-16T15:57:19;99764.78;;;18.48;26.55
64294;BME280;50636;45.596;5.258;2023-02-16T15:59:56;99748.66;;;18.31;26.24
64294;BME280;50636;45.596;5.258;2023-02-16T16:02:41;99754.13;;;18.36;26.25
64294;BME280;50636;45.596;5.258;2023-02-16T16:05:32;99750.81;;;18.52;25.97
64294;BME280;50636;45.596;5.258;2023-02-16T16:08:02;99754.53;;;18.51;26.32
64294;BME280;50636;45.596;5.258;2023-02-16T16:10:32;99758.00;;;18.52;26.66
64294;BME280;50636;45.596;5.258;2023-02-16T16:13:11;99762.19;;;18.60;27.16
64294;BME280;50636;45.596;5.258;2023-02-16T16:15:56;99760.66;;;18.52;26.85
64294;BME280;50636;45.596;5.258;2023-02-16T16:18:42;99755.72;;;18.37;27.09
64294;BME280;50636;45.596;5.258;2023-02-16T16:21:18;99757.53;;;18.25;27.70
64294;BME280;50636;45.596;5.258;2023-02-16T16:24:07;99754.88;;;18.25;27.46
64294;BME280;50636;45.596;5.258;2023-02-16T16:26:57;99755.59;;;18.32;28.44
64294;BME280;50636;45.596;5.258;2023-02-16T16:29:40;99753.34;;;18.47;29.24
64294;BME280;50636;45.596;5.258;2023-02-16T16:32:28;99760.44;;;18.35;28.41
64294;BME280;50636;45.596;5.258;2023-02-16T16:34:56;99763.31;;;18.03;28.86
64294;BME280;50636;45.596;5.258;2023-02-16T16:37:50;99754.72;;;17.83;28.89
64294;BME280;50636;45.596;5.258;2023-02-16T16:43:05;99757.41;;;17.14;30.25
64294;BME280;50636;45.596;5.258;2023-02-16T16:48:26;99763.50;;;16.57;30.55
64294;BME280;50636;45.596;5.258;2023-02-16T16:51:13;99764.44;;;16.31;30.65
64294;BME280;50636;45.596;5.258;2023-02-16T16:53:58;99768.38;;;16.15;30.49
64294;BME280;50636;45.596;5.258;2023-02-16T16:56:47;99777.41;;;16.08;30.41
64294;BME280;50636;45.596;5.258;2023-02-16T16:59:15;99785.34;;;16.01;30.57
64294;BME280;50636;45.596;5.258;2023-02-16T17:01:42;99784.53;;;16.01;31.02
64294;BME280;50636;45.596;5.258;2023-02-16T17:04:13;99782.69;;;16.01;31.09
64294;BME280;50636;45.596;5.258;2023-02-16T17:06:41;99781.69;;;16.02;31.19
64294;BME280;50636;45.596;5.258;2023-02-16T17:09:08;99782.09;;;15.99;30.81
64294;BME280;50636;45.596;5.258;2023-02-16T17:11:36;99788.66;;;15.83;30.78